Time,TemperatureF,DewpointF,PressureIn,WindDirection,WindDirectionDegrees,WindSpeedMPH,WindSpeedGustMPH,Humidity,HourlyPrecipIn,Conditions,Clouds,dailyrainin,SoftwareType,DateUTC
2013-11-06 00:01:00,45.7,36.5,30.18,West,270,0.0,-999.0,70,-99.99,,,0.00,Acu-Link.com,2013-11-06 05:01:00,
2013-11-06 00:16:00,48.0,37.2,30.17,West,270,1.1,-999.0,66,-99.99,,,0.00,Acu-Link.com,2013-11-06 05:16:00,
2013-11-06 00:31:00,48.6,39.2,30.17,West,270,0.0,-999.0,70,-99.99,,,0.00,Acu-Link.com,2013-11-06 05:31:00,
2013-11-06 00:46:00,49.3,41.0,30.17,SW,225,0.0,-999.0,73,-99.99,,,0.00,Acu-Link.com,2013-11-06 05:46:00,
2013-11-06 01:02:00,50.5,43.6,30.16,West,270,3.1,-999.0,77,-99.99,,,0.00,Acu-Link.com,2013-11-06 06:02:00,
2013-11-06 01:17:00,51.1,44.5,30.15,NNE,22,0.0,-999.0,78,-99.99,,,0.00,Acu-Link.com,2013-11-06 06:17:00,
2013-11-06 01:32:00,52.3,48.6,30.15,NNW,337,2.7,-999.0,87,-99.99,,,0.00,Acu-Link.com,2013-11-06 06:32:00,
2013-11-06 01:47:00,52.9,49.1,30.15,North,0,2.7,-999.0,87,-99.99,,,0.00,Acu-Link.com,2013-11-06 06:47:00,
2013-11-06 02:02:00,53.1,49.6,30.14,East,90,0.0,-999.0,88,-99.99,,,0.00,Acu-Link.com,2013-11-06 07:02:00,
2013-11-06 02:17:00,53.1,49.9,30.13,WNW,292,0.0,-999.0,89,-99.99,,,0.00,Acu-Link.com,2013-11-06 07:17:00,
2013-11-06 02:32:00,53.1,50.5,30.13,ENE,67,2.2,-999.0,91,-99.99,,,0.00,Acu-Link.com,2013-11-06 07:32:00,
2013-11-06 02:47:00,53.1,51.1,30.13,NNE,22,0.0,-999.0,93,-99.99,,,0.00,Acu-Link.com,2013-11-06 07:47:00,
2013-11-06 03:04:00,53.1,51.1,30.13,NW,315,0.0,-999.0,93,-99.99,,,0.00,Acu-Link.com,2013-11-06 08:04:00,
2013-11-06 03:19:00,52.9,51.2,30.13,WSW,247,1.1,-999.0,94,-99.99,,,0.00,Acu-Link.com,2013-11-06 08:19:00,
2013-11-06 03:34:00,52.9,51.5,30.12,West,270,1.6,-999.0,95,-99.99,,,0.00,Acu-Link.com,2013-11-06 08:34:00,
2013-11-06 03:49:00,52.9,51.5,30.12,SW,225,1.1,-999.0,95,-99.99,,,0.00,Acu-Link.com,2013-11-06 08:49:00,
2013-11-06 04:04:00,52.9,51.5,30.11,WSW,247,2.2,-999.0,95,-99.99,,,0.00,Acu-Link.com,2013-11-06 09:04:00,
2013-11-06 04:19:00,52.9,51.5,30.11,East,90,2.2,-999.0,95,-99.99,,,0.01,Acu-Link.com,2013-11-06 09:19:00,
2013-11-06 04:35:00,52.9,51.5,30.11,NNW,337,3.1,-999.0,95,-99.99,,,0.01,Acu-Link.com,2013-11-06 09:35:00,
2013-11-06 04:50:00,52.9,51.5,30.11,West,270,2.7,-999.0,95,-99.99,,,0.01,Acu-Link.com,2013-11-06 09:50:00,
2013-11-06 05:05:00,52.9,51.5,30.11,WSW,247,1.6,-999.0,95,-99.99,,,0.02,Acu-Link.com,2013-11-06 10:05:00,
2013-11-06 05:20:00,52.9,51.5,30.11,NE,45,3.8,-999.0,95,-99.99,,,0.02,Acu-Link.com,2013-11-06 10:20:00,
2013-11-06 05:35:00,52.9,51.5,30.11,WNW,292,0.0,-999.0,95,-99.99,,,0.04,Acu-Link.com,2013-11-06 10:35:00,
2013-11-06 05:51:00,52.7,51.6,30.12,NE,45,0.0,-999.0,96,-99.99,,,0.06,Acu-Link.com,2013-11-06 10:51:00,
2013-11-06 06:06:00,52.5,51.4,30.11,WSW,247,0.0,-999.0,96,-99.99,,,0.07,Acu-Link.com,2013-11-06 11:06:00,
2013-11-06 06:21:00,52.5,51.4,30.11,NNW,337,0.0,-999.0,96,-99.99,,,0.07,Acu-Link.com,2013-11-06 11:21:00,
2013-11-06 06:36:00,52.5,51.4,30.11,West,270,0.0,-999.0,96,-99.99,,,0.07,Acu-Link.com,2013-11-06 11:36:00,
2013-11-06 06:51:00,52.2,51.3,30.11,NNW,337,1.6,-999.0,97,-99.99,,,0.08,Acu-Link.com,2013-11-06 11:51:00,
2013-11-06 07:06:00,52.2,51.3,30.11,West,270,0.0,-999.0,97,-99.99,,,0.09,Acu-Link.com,2013-11-06 12:06:00,
2013-11-06 07:22:00,52.2,51.3,30.11,NE,45,2.2,-999.0,97,-99.99,,,0.09,Acu-Link.com,2013-11-06 12:22:00,
2013-11-06 07:37:00,52.2,51.3,30.11,SSE,157,0.0,-999.0,97,-99.99,,,0.09,Acu-Link.com,2013-11-06 12:37:00,
2013-11-06 07:52:00,52.2,51.3,30.12,ENE,67,0.0,-999.0,97,-99.99,,,0.11,Acu-Link.com,2013-11-06 12:52:00,
2013-11-06 08:07:00,52.3,51.5,30.12,SW,225,0.0,-999.0,97,-99.99,,,0.11,Acu-Link.com,2013-11-06 13:07:00,
2013-11-06 08:22:00,52.5,51.7,30.12,West,270,0.0,-999.0,97,-99.99,,,0.11,Acu-Link.com,2013-11-06 13:22:00,
2013-11-06 08:38:00,52.5,51.7,30.12,South,180,0.0,-999.0,97,-99.99,,,0.12,Acu-Link.com,2013-11-06 13:38:00,
2013-11-06 09:05:00,53.1,51.9,30.12,South,180,0.0,-999.0,96,-99.99,,,0.12,Acu-Link.com,2013-11-06 14:05:00,
2013-11-06 09:20:00,53.1,51.9,30.13,ENE,67,2.2,-999.0,96,-99.99,,,0.12,Acu-Link.com,2013-11-06 14:20:00,
2013-11-06 09:35:00,53.2,51.8,30.13,SSE,157,0.0,-999.0,95,-99.99,,,0.12,Acu-Link.com,2013-11-06 14:35:00,
2013-11-06 09:50:00,53.6,51.9,30.13,East,90,4.7,-999.0,94,-99.99,,,0.12,Acu-Link.com,2013-11-06 14:50:00,
2013-11-06 10:05:00,54.7,52.7,30.13,NE,45,0.0,-999.0,93,-99.99,,,0.12,Acu-Link.com,2013-11-06 15:05:00,
2013-11-06 10:21:00,56.1,53.2,30.13,East,90,0.0,-999.0,90,-99.99,,,0.12,Acu-Link.com,2013-11-06 15:21:00,
2013-11-06 10:36:00,57.6,54.0,30.12,East,90,3.8,-999.0,88,-99.99,,,0.12,Acu-Link.com,2013-11-06 15:36:00,
2013-11-06 10:51:00,57.7,52.9,30.12,NE,45,2.2,-999.0,84,-99.99,,,0.12,Acu-Link.com,2013-11-06 15:51:00,
2013-11-06 11:06:00,58.6,53.2,30.12,NW,315,4.7,-999.0,82,-99.99,,,0.12,Acu-Link.com,2013-11-06 16:06:00,
2013-11-06 11:21:00,58.3,51.8,30.11,ENE,67,0.0,-999.0,79,-99.99,,,0.12,Acu-Link.com,2013-11-06 16:21:00,
2013-11-06 11:37:00,60.8,53.5,30.11,East,90,0.0,-999.0,77,-99.99,,,0.12,Acu-Link.com,2013-11-06 16:37:00,
2013-11-06 11:52:00,60.8,53.9,30.10,NW,315,1.6,-999.0,78,-99.99,,,0.12,Acu-Link.com,2013-11-06 16:52:00,
2013-11-06 12:07:00,61.2,53.2,30.10,NE,45,0.0,-999.0,75,-99.99,,,0.12,Acu-Link.com,2013-11-06 17:07:00,
2013-11-06 12:22:00,60.4,53.9,30.09,WNW,292,2.7,-999.0,79,-99.99,,,0.12,Acu-Link.com,2013-11-06 17:22:00,
2013-11-06 12:37:00,60.4,53.9,30.09,SW,225,0.0,-999.0,79,-99.99,,,0.12,Acu-Link.com,2013-11-06 17:37:00,
2013-11-06 12:53:00,60.3,53.0,30.06,West,270,1.1,-999.0,77,-99.99,,,0.12,Acu-Link.com,2013-11-06 17:53:00,
2013-11-06 13:08:00,61.0,53.7,30.06,NW,315,0.0,-999.0,77,-99.99,,,0.12,Acu-Link.com,2013-11-06 18:08:00,
2013-11-06 13:23:00,59.9,53.4,30.05,SSE,157,0.0,-999.0,79,-99.99,,,0.12,Acu-Link.com,2013-11-06 18:23:00,
2013-11-06 13:38:00,61.3,54.1,30.04,ENE,67,2.2,-999.0,77,-99.99,,,0.12,Acu-Link.com,2013-11-06 18:38:00,
2013-11-06 13:53:00,62.4,54.4,30.03,South,180,0.0,-999.0,75,-99.99,,,0.12,Acu-Link.com,2013-11-06 18:53:00,
2013-11-06 14:09:00,62.4,54.4,30.03,SSW,202,3.8,-999.0,75,-99.99,,,0.13,Acu-Link.com,2013-11-06 19:09:00,
2013-11-06 14:24:00,64.6,55.3,30.02,ESE,112,0.0,-999.0,72,-99.99,,,0.13,Acu-Link.com,2013-11-06 19:24:00,
2013-11-06 14:39:00,65.1,55.1,30.02,NE,45,2.7,-999.0,70,-99.99,,,0.13,Acu-Link.com,2013-11-06 19:39:00,
2013-11-06 14:54:00,64.9,54.9,30.01,NE,45,0.0,-999.0,70,-99.99,,,0.13,Acu-Link.com,2013-11-06 19:54:00,
2013-11-06 15:09:00,65.3,55.6,30.01,SE,135,1.6,-999.0,71,-99.99,,,0.13,Acu-Link.com,2013-11-06 20:09:00,
2013-11-06 15:25:00,64.6,55.7,30.01,SSW,202,0.0,-999.0,73,-99.99,,,0.13,Acu-Link.com,2013-11-06 20:25:00,
2013-11-06 15:40:00,64.0,54.8,30.01,West,270,0.0,-999.0,72,-99.99,,,0.13,Acu-Link.com,2013-11-06 20:40:00,
2013-11-06 15:55:00,63.5,54.7,30.00,NNW,337,3.1,-999.0,73,-99.99,,,0.13,Acu-Link.com,2013-11-06 20:55:00,
2013-11-06 16:10:00,62.1,54.4,29.99,WSW,247,0.0,-999.0,76,-99.99,,,0.13,Acu-Link.com,2013-11-06 21:10:00,
2013-11-06 16:25:00,59.9,54.1,29.99,West,270,0.0,-999.0,81,-99.99,,,0.13,Acu-Link.com,2013-11-06 21:25:00,
2013-11-06 16:41:00,59.5,54.0,29.99,West,270,0.0,-999.0,82,-99.99,,,0.13,Acu-Link.com,2013-11-06 21:41:00,
2013-11-06 16:56:00,58.6,53.2,29.99,WSW,247,0.0,-999.0,82,-99.99,,,0.13,Acu-Link.com,2013-11-06 21:56:00,
2013-11-06 17:11:00,58.3,53.8,29.99,West,270,2.2,-999.0,85,-99.99,,,0.13,Acu-Link.com,2013-11-06 22:11:00,
2013-11-06 17:26:00,58.3,53.8,29.99,SSW,202,0.0,-999.0,85,-99.99,,,0.13,Acu-Link.com,2013-11-06 22:26:00,
2013-11-06 17:42:00,57.2,52.7,29.98,West,270,2.2,-999.0,85,-99.99,,,0.13,Acu-Link.com,2013-11-06 22:42:00,
2013-11-06 17:57:00,56.3,52.2,29.99,WSW,247,2.2,-999.0,86,-99.99,,,0.13,Acu-Link.com,2013-11-06 22:57:00,
2013-11-06 18:12:00,56.3,52.2,29.99,SSW,202,0.0,-999.0,86,-99.99,,,0.13,Acu-Link.com,2013-11-06 23:12:00,
2013-11-06 18:27:00,56.5,52.3,29.98,West,270,1.1,-999.0,86,-99.99,,,0.13,Acu-Link.com,2013-11-06 23:27:00,
2013-11-06 18:42:00,56.5,52.3,29.98,WSW,247,2.2,-999.0,86,-99.99,,,0.13,Acu-Link.com,2013-11-06 23:42:00,
2013-11-06 18:58:00,56.5,52.3,29.99,SSW,202,0.0,-999.0,86,-99.99,,,0.13,Acu-Link.com,2013-11-06 23:58:00,
2013-11-06 19:13:00,56.5,52.3,29.99,West,270,0.0,-999.0,86,-99.99,,,0.13,Acu-Link.com,2013-11-07 00:13:00,
2013-11-06 19:28:00,56.1,52.0,29.98,SW,225,0.0,-999.0,86,-99.99,,,0.13,Acu-Link.com,2013-11-07 00:28:00,
2013-11-06 19:43:00,55.9,52.1,29.98,SE,135,0.0,-999.0,87,-99.99,,,0.13,Acu-Link.com,2013-11-07 00:43:00,
2013-11-06 19:58:00,55.8,51.9,29.98,WNW,292,0.0,-999.0,87,-99.99,,,0.13,Acu-Link.com,2013-11-07 00:58:00,
2013-11-06 20:14:00,55.6,52.1,29.98,West,270,0.0,-999.0,88,-99.99,,,0.13,Acu-Link.com,2013-11-07 01:14:00,
2013-11-06 20:29:00,55.6,52.1,29.98,SW,225,0.0,-999.0,88,-99.99,,,0.13,Acu-Link.com,2013-11-07 01:29:00,
2013-11-06 20:44:00,55.4,51.9,29.98,West,270,0.0,-999.0,88,-99.99,,,0.13,Acu-Link.com,2013-11-07 01:44:00,
2013-11-06 20:59:00,55.4,51.9,29.98,South,180,0.0,-999.0,88,-99.99,,,0.13,Acu-Link.com,2013-11-07 01:59:00,
2013-11-06 21:14:00,55.4,52.2,29.97,West,270,0.0,-999.0,89,-99.99,,,0.13,Acu-Link.com,2013-11-07 02:14:00,
2013-11-06 21:30:00,55.4,52.2,29.97,North,0,0.0,-999.0,89,-99.99,,,0.13,Acu-Link.com,2013-11-07 02:30:00,
2013-11-06 21:45:00,55.4,52.2,29.97,West,270,0.0,-999.0,89,-99.99,,,0.13,Acu-Link.com,2013-11-07 02:45:00,
2013-11-06 22:00:00,55.4,52.2,29.97,SSW,202,0.0,-999.0,89,-99.99,,,0.13,Acu-Link.com,2013-11-07 03:00:00,
2013-11-06 22:15:00,55.0,51.9,29.96,NE,45,0.0,-999.0,89,-99.99,,,0.13,Acu-Link.com,2013-11-07 03:15:00,
2013-11-06 22:31:00,54.9,52.0,29.96,SSW,202,0.0,-999.0,90,-99.99,,,0.13,Acu-Link.com,2013-11-07 03:31:00,
2013-11-06 22:46:00,54.7,52.1,29.96,SSW,202,0.0,-999.0,91,-99.99,,,0.13,Acu-Link.com,2013-11-07 03:46:00,
2013-11-06 23:01:00,54.5,51.9,29.95,South,180,0.0,-999.0,91,-99.99,,,0.13,Acu-Link.com,2013-11-07 04:01:00,
2013-11-06 23:16:00,54.5,51.9,29.95,South,180,0.0,-999.0,91,-99.99,,,0.13,Acu-Link.com,2013-11-07 04:16:00,
2013-11-06 23:31:00,54.5,52.2,29.95,SSW,202,0.0,-999.0,92,-99.99,,,0.13,Acu-Link.com,2013-11-07 04:31:00,
2013-11-06 23:47:00,54.7,52.4,29.95,West,270,0.0,-999.0,92,-99.99,,,0.13,Acu-Link.com,2013-11-07 04:47:00,